sensor_id;sensor_type;location;lat;lon;timestamp;pressure;altitude;pressure_sealevel;temperature;humidity
9784;BME280;4931;44.874;-1.092;2022-10-16T00:02:32;100989.19;;;15.38;100.00
9784;BME280;4931;44.874;-1.092;2022-10-16T00:07:20;100988.16;;;15.34;100.00
9784;BME280;4931;44.874;-1.092;2022-10-16T00:12:05;100973.50;;;15.34;100.00
9784;BME280;4931;44.874;-1.092;2022-10-16T00:16:51;100966.47;;;15.27;100.00
9784;BME280;4931;44.874;-1.092;2022-10-16T00:21:36;100955.09;;;15.15;100.00
9784;BME280;4931;44.874;-1.092;2022-10-16T00:26:24;100939.16;;;15.26;100.00
9784;BME280;4931;44.874;-1.092;2022-10-16T00:31:11;100950.81;;;15.23;100.00
9784;BME280;4931;44.874;-1.092;2022-10-16T00:35:57;100947.53;;;15.35;100.00
9784;BME280;4931;44.874;-1.092;2022-10-16T00:40:43;100945.69;;;15.30;100.00
9784;BME280;4931;44.874;-1.092;2022-10-16T00:45:30;100953.88;;;15.35;100.00
9784;BME280;4931;44.874;-1.092;2022-10-16T00:50:20;100948.53;;;15.39;100.00
9784;BME280;4931;44.874;-1.092;2022-10-16T00:55:08;100940.56;;;15.37;100.00
9784;BME280;4931;44.874;-1.092;2022-10-16T00:59:54;100942.22;;;15.38;100.00
9784;BME280;4931;44.874;-1.092;2022-10-16T01:04:44;100947.72;;;15.38;100.00
9784;BME280;4931;44.874;-1.092;2022-10-16T01:09:36;100953.25;;;15.38;100.00
9784;BME280;4931;44.874;-1.092;2022-10-16T01:14:34;100944.16;;;15.38;100.00
9784;BME280;4931;44.874;-1.092;2022-10-16T01:19:36;100954.50;;;15.46;100.00
9784;BME280;4931;44.874;-1.092;2022-10-16T01:24:32;100957.56;;;15.44;100.00
9784;BME280;4931;44.874;-1.092;2022-10-16T01:29:28;100950.72;;;15.42;100.00
9784;BME280;4931;44.874;-1.092;2022-10-16T01:34:17;100945.69;;;15.30;100.00
9784;BME280;4931;44.874;-1.092;2022-10-16T01:39:03;100941.81;;;15.17;100.00
9784;BME280;4931;44.874;-1.092;2022-10-16T01:43:56;100942.00;;;15.21;100.00
9784;BME280;4931;44.874;-1.092;2022-10-16T01:48:47;100947.31;;;15.17;100.00
9784;BME280;4931;44.874;-1.092;2022-10-16T01:53:33;100938.00;;;15.13;100.00
9784;BME280;4931;44.874;-1.092;2022-10-16T01:58:19;100944.44;;;15.08;100.00
9784;BME280;4931;44.874;-1.092;2022-10-16T02:03:05;100936.28;;;15.17;100.00
9784;BME280;4931;44.874;-1.092;2022-10-16T02:07:54;100933.81;;;15.16;100.00
9784;BME280;4931;44.874;-1.092;2022-10-16T02:12:48;100941.59;;;15.14;100.00
9784;BME280;4931;44.874;-1.092;2022-10-16T02:17:35;100937.09;;;15.18;100.00
9784;BME280;4931;44.874;-1.092;2022-10-16T02:22:24;100935.44;;;15.17;100.00
9784;BME280;4931;44.874;-1.092;2022-10-16T02:27:17;100925.53;;;15.16;100.00
9784;BME280;4931;44.874;-1.092;2022-10-16T02:32:06;100933.91;;;15.10;100.00
9784;BME280;4931;44.874;-1.092;2022-10-16T02:36:53;100931.16;;;15.10;100.00
9784;BME280;4931;44.874;-1.092;2022-10-16T02:41:39;100930.13;;;15.06;100.00
9784;BME280;4931;44.874;-1.092;2022-10-16T02:46:27;100936.91;;;15.14;100.00
9784;BME280;4931;44.874;-1.092;2022-10-16T02:51:12;100926.44;;;15.11;100.00
9784;BME280;4931;44.874;-1.092;2022-10-16T02:55:57;100934.50;;;15.07;100.00
9784;BME280;4931;44.874;-1.092;2022-10-16T03:00:43;100942.19;;;14.97;100.00
9784;BME280;4931;44.874;-1.092;2022-10-16T03:05:31;100943.22;;;14.87;100.00
9784;BME280;4931;44.874;-1.092;2022-10-16T03:10:16;100939.44;;;14.83;100.00
9784;BME280;4931;44.874;-1.092;2022-10-16T03:15:01;100923.53;;;14.74;100.00
9784;BME280;4931;44.874;-1.092;2022-10-16T03:19:47;100924.91;;;14.58;100.00
9784;BME280;4931;44.874;-1.092;2022-10-16T03:24:35;100921.22;;;14.49;100.00
9784;BME280;4931;44.874;-1.092;2022-10-16T03:29:20;100925.09;;;14.48;100.00
9784;BME280;4931;44.874;-1.092;2022-10-16T03:34:05;100921.78;;;14.45;100.00
9784;BME280;4931;44.874;-1.092;2022-10-16T03:38:51;100916.28;;;14.45;100.00
9784;BME280;4931;44.874;-1.092;2022-10-16T03:43:38;100908.09;;;14.40;100.00
9784;BME280;4931;44.874;-1.092;2022-10-16T03:48:24;100908.00;;;14.13;100.00
9784;BME280;4931;44.874;-1.092;2022-10-16T03:53:09;100903.66;;;14.06;100.00
9784;BME280;4931;44.874;-1.092;2022-10-16T03:57:55;100908.16;;;14.02;100.00
9784;BME280;4931;44.874;-1.092;2022-10-16T04:02:42;100908.72;;;14.18;100.00
9784;BME280;4931;44.874;-1.092;2022-10-16T04:07:48;100922.81;;;14.17;100.00
9784;BME280;4931;44.874;-1.092;2022-10-16T04:12:33;100911.28;;;14.15;100.00
9784;BME280;4931;44.874;-1.092;2022-10-16T04:17:18;100911.88;;;14.11;100.00
9784;BME280;4931;44.874;-1.092;2022-10-16T04:22:06;100919.72;;;14.04;100.00
9784;BME280;4931;44.874;-1.092;2022-10-16T04:26:51;100917.19;;;14.08;100.00
9784;BME280;4931;44.874;-1.092;2022-10-16T04:31:36;100918.59;;;14.05;100.00
9784;BME280;4931;44.874;-1.092;2022-10-16T04:36:21;100916.50;;;13.97;100.00
9784;BME280;4931;44.874;-1.092;2022-10-16T04:41:12;100923.97;;;13.97;100.00
9784;BME280;4931;44.874;-1.092;2022-10-16T04:45:58;100929.78;;;13.95;100.00
9784;BME280;4931;44.874;-1.092;2022-10-16T04:50:43;100931.44;;;13.96;100.00
9784;BME280;4931;44.874;-1.092;2022-10-16T04:55:36;100936.06;;;13.82;100.00
9784;BME280;4931;44.874;-1.092;2022-10-16T05:00:23;100950.28;;;13.89;100.00
9784;BME280;4931;44.874;-1.092;2022-10-16T05:05:09;100943.03;;;13.93;100.00
9784;BME280;4931;44.874;-1.092;2022-10-16T05:09:54;100950.81;;;13.91;100.00
9784;BME280;4931;44.874;-1.092;2022-10-16T05:14:40;100949.06;;;13.76;100.00
9784;BME280;4931;44.874;-1.092;2022-10-16T05:19:27;100948.25;;;13.75;100.00
9784;BME280;4931;44.874;-1.092;2022-10-16T05:24:13;100962.53;;;13.77;100.00
9784;BME280;4931;44.874;-1.092;2022-10-16T05:28:58;100952.59;;;13.82;100.00
9784;BME280;4931;44.874;-1.092;2022-10-16T05:33:43;100959.72;;;13.83;100.00
9784;BME280;4931;44.874;-1.092;2022-10-16T05:38:51;100964.06;;;13.89;100.00
9784;BME280;4931;44.874;-1.092;2022-10-16T05:43:36;100954.00;;;13.79;100.00
9784;BME280;4931;44.874;-1.092;2022-10-16T05:48:22;100956.06;;;13.68;100.00
9784;BME280;4931;44.874;-1.092;2022-10-16T05:53:07;100948.31;;;13.70;100.00
9784;BME280;4931;44.874;-1.092;2022-10-16T05:57:56;100943.56;;;13.76;100.00
9784;BME280;4931;44.874;-1.092;2022-10-16T06:02:42;100945.88;;;13.88;100.00
9784;BME280;4931;44.874;-1.092;2022-10-16T06:07:27;100948.69;;;13.83;100.00
9784;BME280;4931;44.874;-1.092;2022-10-16T06:12:12;100942.28;;;13.68;100.00
9784;BME280;4931;44.874;-1.092;2022-10-16T06:17:00;100939.59;;;13.63;100.00
9784;BME280;4931;44.874;-1.092;2022-10-16T06:21:45;100937.63;;;13.44;100.00
9784;BME280;4931;44.874;-1.092;2022-10-16T06:26:31;100938.41;;;13.50;100.00
9784;BME280;4931;44.874;-1.092;2022-10-16T06:31:16;100935.47;;;13.41;100.00
9784;BME280;4931;44.874;-1.092;2022-10-16T06:36:06;100942.09;;;13.40;100.00
9784;BME280;4931;44.874;-1.092;2022-10-16T06:40:53;100933.84;;;13.35;100.00
9784;BME280;4931;44.874;-1.092;2022-10-16T06:45:38;100942.78;;;13.27;100.00
9784;BME280;4931;44.874;-1.092;2022-10-16T06:50:23;100939.34;;;13.35;100.00
9784;BME280;4931;44.874;-1.092;2022-10-16T06:55:11;100939.25;;;13.45;100.00
9784;BME280;4931;44.874;-1.092;2022-10-16T06:59:57;100931.41;;;13.58;100.00
9784;BME280;4931;44.874;-1.092;2022-10-16T07:04:42;100935.50;;;13.60;100.00
9784;BME280;4931;44.874;-1.092;2022-10-16T07:09:27;100942.06;;;13.84;100.00
9784;BME280;4931;44.874;-1.092;2022-10-16T07:14:18;100941.56;;;14.01;100.00
9784;BME280;4931;44.874;-1.092;2022-10-16T07:19:03;100941.41;;;14.30;100.00
9784;BME280;4931;44.874;-1.092;2022-10-16T07:23:50;100957.91;;;14.68;100.00
9784;BME280;4931;44.874;-1.092;2022-10-16T07:28:36;100957.75;;;15.06;100.00
9784;BME280;4931;44.874;-1.092;2022-10-16T07:33:24;100958.97;;;15.56;100.00
9784;BME280;4931;44.874;-1.092;2022-10-16T07:38:09;100966.78;;;16.04;100.00
9784;BME280;4931;44.874;-1.092;2022-10-16T07:42:55;100951.34;;;16.49;100.00
9784;BME280;4931;44.874;-1.092;2022-10-16T07:47:40;100950.19;;;16.72;100.00
9784;BME280;4931;44.874;-1.092;2022-10-16T07:52:28;100948.78;;;17.06;100.00
9784;BME280;4931;44.874;-1.092;2022-10-16T07:57:13;100944.94;;;17.25;100.00
9784;BME280;4931;44.874;-1.092;2022-10-16T08:02:01;100955.78;;;17.44;100.00
9784;BME280;4931;44.874;-1.092;2022-10-16T08:06:46;100961.75;;;17.37;100.00
9784;BME280;4931;44.874;-1.092;2022-10-16T08:11:34;100971.78;;;17.56;100.00
9784;BME280;4931;44.874;-1.092;2022-10-16T08:16:20;100959.88;;;17.55;100.00
9784;BME280;4931;44.874;-1.092;2022-10-16T08:21:06;100959.47;;;17.97;100.00
9784;BME280;4931;44.874;-1.092;2022-10-16T08:25:51;100961.06;;;17.81;100.00
9784;BME280;4931;44.874;-1.092;2022-10-16T08:30:40;100962.75;;;17.99;100.00
9784;BME280;4931;44.874;-1.092;2022-10-16T08:35:25;100971.56;;;18.01;100.00
9784;BME280;4931;44.874;-1.092;2022-10-16T08:40:17;100974.03;;;18.12;100.00
9784;BME280;4931;44.874;-1.092;2022-10-16T08:45:19;100962.38;;;18.62;100.00
9784;BME280;4931;44.874;-1.092;2022-10-16T08:50:12;100973.13;;;18.72;100.00
9784;BME280;4931;44.874;-1.092;2022-10-16T08:54:58;100976.06;;;18.85;100.00
9784;BME280;4931;44.874;-1.092;2022-10-16T08:59:46;100970.97;;;19.04;100.00
9784;BME280;4931;44.874;-1.092;2022-10-16T09:04:52;100971.66;;;19.31;100.00
9784;BME280;4931;44.874;-1.092;2022-10-16T09:09:50;100968.34;;;19.47;100.00
9784;BME280;4931;44.874;-1.092;2022-10-16T09:14:50;100960.44;;;19.79;100.00
9784;BME280;4931;44.874;-1.092;2022-10-16T09:19:45;100962.31;;;20.17;100.00
9784;BME280;4931;44.874;-1.092;2022-10-16T09:24:31;100971.16;;;20.19;100.00
9784;BME280;4931;44.874;-1.092;2022-10-16T09:29:20;100961.06;;;20.48;100.00
9784;BME280;4931;44.874;-1.092;2022-10-16T09:34:13;100964.34;;;20.96;100.00
9784;BME280;4931;44.874;-1.092;2022-10-16T09:39:05;100961.72;;;21.36;100.00
9784;BME280;4931;44.874;-1.092;2022-10-16T09:43:53;100970.78;;;21.21;100.00
9784;BME280;4931;44.874;-1.092;2022-10-16T09:48:48;100967.53;;;21.19;100.00
9784;BME280;4931;44.874;-1.092;2022-10-16T09:53:41;100968.22;;;21.40;100.00
9784;BME280;4931;44.874;-1.092;2022-10-16T09:58:27;100967.06;;;21.79;100.00
9784;BME280;4931;44.874;-1.092;2022-10-16T10:03:12;100966.72;;;22.21;100.00
9784;BME280;4931;44.874;-1.092;2022-10-16T10:08:01;100969.91;;;22.48;100.00
9784;BME280;4931;44.874;-1.092;2022-10-16T10:12:48;100955.78;;;22.57;100.00
9784;BME280;4931;44.874;-1.092;2022-10-16T10:17:33;100961.09;;;22.33;100.00
9784;BME280;4931;44.874;-1.092;2022-10-16T10:22:29;100954.56;;;22.42;100.00
9784;BME280;4931;44.874;-1.092;2022-10-16T10:27:18;100950.56;;;22.71;100.00
9784;BME280;4931;44.874;-1.092;2022-10-16T10:32:12;100945.78;;;22.71;100.00
9784;BME280;4931;44.874;-1.092;2022-10-16T10:37:06;100944.47;;;22.81;100.00
9784;BME280;4931;44.874;-1.092;2022-10-16T10:42:04;100936.97;;;23.01;100.00
9784;BME280;4931;44.874;-1.092;2022-10-16T10:47:00;100926.31;;;23.23;100.00
9784;BME280;4931;44.874;-1.092;2022-10-16T10:51:55;100935.44;;;23.71;100.00
9784;BME280;4931;44.874;-1.092;2022-10-16T10:56:51;100944.75;;;23.76;100.00
9784;BME280;4931;44.874;-1.092;2022-10-16T11:01:49;100941.69;;;23.65;100.00
9784;BME280;4931;44.874;-1.092;2022-10-16T11:06:41;100945.84;;;23.71;100.00
9784;BME280;4931;44.874;-1.092;2022-10-16T11:11:33;100944.16;;;24.02;100.00
9784;BME280;4931;44.874;-1.092;2022-10-16T11:16:31;100945.25;;;24.36;100.00
9784;BME280;4931;44.874;-1.092;2022-10-16T11:21:19;100939.47;;;24.49;100.00
9784;BME280;4931;44.874;-1.092;2022-10-16T11:26:19;100934.03;;;24.56;100.00
9784;BME280;4931;44.874;-1.092;2022-10-16T11:31:09;100936.81;;;24.76;100.00
9784;BME280;4931;44.874;-1.092;2022-10-16T11:36:01;100933.47;;;25.40;100.00
9784;BME280;4931;44.874;-1.092;2022-10-16T11:40:52;100928.72;;;25.71;100.00
9784;BME280;4931;44.874;-1.092;2022-10-16T11:45:45;100938.19;;;26.20;100.00
9784;BME280;4931;44.874;-1.092;2022-10-16T11:50:35;100924.84;;;26.47;100.00
9784;BME280;4931;44.874;-1.092;2022-10-16T11:55:27;100933.19;;;26.74;100.00
9784;BME280;4931;44.874;-1.092;2022-10-16T12:00:21;100918.16;;;27.04;97.64
9784;BME280;4931;44.874;-1.092;2022-10-16T12:05:22;100916.50;;;26.95;98.44
9784;BME280;4931;44.874;-1.092;2022-10-16T12:10:20;100921.47;;;27.13;95.29
9784;BME280;4931;44.874;-1.092;2022-10-16T12:15:21;100916.75;;;27.28;93.52
9784;BME280;4931;44.874;-1.092;2022-10-16T12:20:31;100906.25;;;27.21;80.77
9784;BME280;4931;44.874;-1.092;2022-10-16T12:25:21;100907.22;;;27.40;78.87
9784;BME280;4931;44.874;-1.092;2022-10-16T12:30:20;100900.16;;;27.75;72.65
9784;BME280;4931;44.874;-1.092;2022-10-16T12:35:18;100896.13;;;27.76;65.41
9784;BME280;4931;44.874;-1.092;2022-10-16T12:40:15;100888.22;;;28.03;61.64
9784;BME280;4931;44.874;-1.092;2022-10-16T12:45:28;100905.78;;;27.75;62.50
9784;BME280;4931;44.874;-1.092;2022-10-16T12:50:25;100900.13;;;27.67;59.80
9784;BME280;4931;44.874;-1.092;2022-10-16T12:55:17;100896.44;;;27.00;63.79
9784;BME280;4931;44.874;-1.092;2022-10-16T13:00:09;100901.84;;;27.27;62.30
9784;BME280;4931;44.874;-1.092;2022-10-16T13:05:13;100892.75;;;27.41;62.90
9784;BME280;4931;44.874;-1.092;2022-10-16T13:10:10;100887.13;;;27.48;62.95
9784;BME280;4931;44.874;-1.092;2022-10-16T13:15:12;100894.44;;;27.57;63.53
9784;BME280;4931;44.874;-1.092;2022-10-16T13:20:09;100883.16;;;27.53;62.10
9784;BME280;4931;44.874;-1.092;2022-10-16T13:25:08;100888.78;;;27.53;63.12
9784;BME280;4931;44.874;-1.092;2022-10-16T13:30:12;100894.50;;;27.67;64.70
9784;BME280;4931;44.874;-1.092;2022-10-16T13:34:58;100886.34;;;27.48;65.16
9784;BME280;4931;44.874;-1.092;2022-10-16T13:39:44;100882.97;;;27.31;63.40
9784;BME280;4931;44.874;-1.092;2022-10-16T13:44:36;100880.72;;;27.48;62.48
9784;BME280;4931;44.874;-1.092;2022-10-16T13:49:28;100873.56;;;27.69;57.00
9784;BME280;4931;44.874;-1.092;2022-10-16T13:54:13;100891.19;;;27.55;57.27
9784;BME280;4931;44.874;-1.092;2022-10-16T13:59:00;100888.03;;;27.63;57.64
9784;BME280;4931;44.874;-1.092;2022-10-16T14:03:47;100881.53;;;27.52;58.70
9784;BME280;4931;44.874;-1.092;2022-10-16T14:08:35;100871.06;;;27.49;59.09
9784;BME280;4931;44.874;-1.092;2022-10-16T14:13:29;100878.06;;;27.17;60.42
9784;BME280;4931;44.874;-1.092;2022-10-16T14:18:20;100878.59;;;26.82;62.89
9784;BME280;4931;44.874;-1.092;2022-10-16T14:23:20;100887.16;;;26.55;66.39
9784;BME280;4931;44.874;-1.092;2022-10-16T14:28:18;100882.56;;;26.77;70.52
9784;BME280;4931;44.874;-1.092;2022-10-16T14:33:05;100881.06;;;26.87;66.64
9784;BME280;4931;44.874;-1.092;2022-10-16T14:37:52;100877.13;;;26.99;66.69
9784;BME280;4931;44.874;-1.092;2022-10-16T14:42:37;100871.47;;;26.95;66.67
9784;BME280;4931;44.874;-1.092;2022-10-16T14:47:26;100868.22;;;26.93;67.39
9784;BME280;4931;44.874;-1.092;2022-10-16T14:52:12;100863.50;;;27.05;64.92
9784;BME280;4931;44.874;-1.092;2022-10-16T14:56:58;100867.59;;;27.18;63.18
9784;BME280;4931;44.874;-1.092;2022-10-16T15:01:44;100869.97;;;27.09;63.27
9784;BME280;4931;44.874;-1.092;2022-10-16T15:06:32;100885.81;;;26.83;63.02
9784;BME280;4931;44.874;-1.092;2022-10-16T15:11:18;100869.69;;;26.73;64.68
9784;BME280;4931;44.874;-1.092;2022-10-16T15:16:04;100878.59;;;26.82;67.52
9784;BME280;4931;44.874;-1.092;2022-10-16T15:20:50;100876.97;;;26.81;67.31
9784;BME280;4931;44.874;-1.092;2022-10-16T15:25:42;100874.06;;;26.70;68.33
9784;BME280;4931;44.874;-1.092;2022-10-16T15:30:28;100870.31;;;26.59;66.22
9784;BME280;4931;44.874;-1.092;2022-10-16T15:35:13;100868.13;;;26.79;69.59
9784;BME280;4931;44.874;-1.092;2022-10-16T15:39:58;100868.09;;;26.75;70.41
9784;BME280;4931;44.874;-1.092;2022-10-16T15:44:46;100881.75;;;26.35;72.62
9784;BME280;4931;44.874;-1.092;2022-10-16T15:49:32;100884.81;;;26.61;67.90
9784;BME280;4931;44.874;-1.092;2022-10-16T15:54:18;100896.72;;;26.47;72.07
9784;BME280;4931;44.874;-1.092;2022-10-16T15:59:05;100899.88;;;26.42;70.36
9784;BME280;4931;44.874;-1.092;2022-10-16T16:03:55;100902.13;;;26.25;72.48
9784;BME280;4931;44.874;-1.092;2022-10-16T16:08:40;100908.31;;;26.42;69.88
9784;BME280;4931;44.874;-1.092;2022-10-16T16:13:27;100902.97;;;26.29;72.30
9784;BME280;4931;44.874;-1.092;2022-10-16T16:18:12;100910.03;;;26.16;75.15
9784;BME280;4931;44.874;-1.092;2022-10-16T16:23:01;100912.56;;;25.94;76.49
9784;BME280;4931;44.874;-1.092;2022-10-16T16:27:46;100905.38;;;25.66;79.29
9784;BME280;4931;44.874;-1.092;2022-10-16T16:32:31;100915.28;;;25.87;77.68
9784;BME280;4931;44.874;-1.092;2022-10-16T16:37:17;100915.31;;;25.33;82.23
9784;BME280;4931;44.874;-1.092;2022-10-16T16:42:06;100922.81;;;25.26;81.67
9784;BME280;4931;44.874;-1.092;2022-10-16T16:46:55;100927.91;;;25.20;81.88
9784;BME280;4931;44.874;-1.092;2022-10-16T16:51:44;100930.50;;;24.82;86.03
9784;BME280;4931;44.874;-1.092;2022-10-16T16:56:30;100940.91;;;24.82;88.10
9784;BME280;4931;44.874;-1.092;2022-10-16T17:01:19;100954.81;;;24.55;92.15
9784;BME280;4931;44.874;-1.092;2022-10-16T17:06:06;100944.50;;;24.20;95.22
9784;BME280;4931;44.874;-1.092;2022-10-16T17:10:53;100948.50;;;23.99;99.86
9784;BME280;4931;44.874;-1.092;2022-10-16T17:15:45;100946.53;;;23.84;100.00
9784;BME280;4931;44.874;-1.092;2022-10-16T17:20:35;100949.75;;;23.86;100.00
9784;BME280;4931;44.874;-1.092;2022-10-16T17:25:21;100957.25;;;23.62;100.00
9784;BME280;4931;44.874;-1.092;2022-10-16T17:30:10;100951.16;;;23.41;100.00
9784;BME280;4931;44.874;-1.092;2022-10-16T17:34:56;100957.41;;;23.18;100.00
9784;BME280;4931;44.874;-1.092;2022-10-16T17:39:49;100955.66;;;22.97;100.00
9784;BME280;4931;44.874;-1.092;2022-10-16T17:44:35;100958.38;;;22.65;100.00
9784;BME280;4931;44.874;-1.092;2022-10-16T17:49:22;100970.44;;;22.53;100.00
9784;BME280;4931;44.874;-1.092;2022-10-16T17:54:12;100977.53;;;22.22;100.00
9784;BME280;4931;44.874;-1.092;2022-10-16T17:59:02;100970.72;;;22.08;100.00
9784;BME280;4931;44.874;-1.092;2022-10-16T18:03:49;100962.63;;;21.90;100.00
9784;BME280;4931;44.874;-1.092;2022-10-16T18:08:35;100960.78;;;21.82;100.00
9784;BME280;4931;44.874;-1.092;2022-10-16T18:13:20;100962.66;;;21.65;100.00
9784;BME280;4931;44.874;-1.092;2022-10-16T18:18:08;100962.06;;;21.47;100.00
9784;BME280;4931;44.874;-1.092;2022-10-16T18:22:53;100968.47;;;21.48;100.00
9784;BME280;4931;44.874;-1.092;2022-10-16T18:27:38;100964.97;;;21.38;100.00
9784;BME280;4931;44.874;-1.092;2022-10-16T18:32:23;100967.63;;;21.35;100.00
9784;BME280;4931;44.874;-1.092;2022-10-16T18:37:12;100967.06;;;21.29;100.00
9784;BME280;4931;44.874;-1.092;2022-10-16T18:41:57;100953.34;;;21.24;100.00
9784;BME280;4931;44.874;-1.092;2022-10-16T18:46:43;100951.50;;;21.16;100.00
9784;BME280;4931;44.874;-1.092;2022-10-16T18:51:29;100935.44;;;21.13;100.00
9784;BME280;4931;44.874;-1.092;2022-10-16T18:56:19;100940.22;;;21.12;100.00
9784;BME280;4931;44.874;-1.092;2022-10-16T19:01:05;100955.19;;;21.08;100.00
9784;BME280;4931;44.874;-1.092;2022-10-16T19:05:59;100967.16;;;21.08;100.00
9784;BME280;4931;44.874;-1.092;2022-10-16T19:10:44;100959.72;;;21.12;100.00
9784;BME280;4931;44.874;-1.092;2022-10-16T19:15:32;100962.16;;;21.26;100.00
9784;BME280;4931;44.874;-1.092;2022-10-16T19:20:17;100956.03;;;21.33;100.00
9784;BME280;4931;44.874;-1.092;2022-10-16T19:25:03;100960.78;;;21.45;100.00
9784;BME280;4931;44.874;-1.092;2022-10-16T19:29:48;100964.97;;;21.38;100.00
9784;BME280;4931;44.874;-1.092;2022-10-16T19:34:36;100963.34;;;21.37;100.00
9784;BME280;4931;44.874;-1.092;2022-10-16T19:39:21;100972.41;;;21.47;100.00
9784;BME280;4931;44.874;-1.092;2022-10-16T19:44:09;100963.13;;;21.30;100.00
9784;BME280;4931;44.874;-1.092;2022-10-16T19:48:56;100977.28;;;21.37;100.00
9784;BME280;4931;44.874;-1.092;2022-10-16T19:53:46;100982.50;;;21.39;100.00
9784;BME280;4931;44.874;-1.092;2022-10-16T19:58:31;100978.44;;;21.36;100.00
9784;BME280;4931;44.874;-1.092;2022-10-16T20:03:17;100979.63;;;21.35;100.00
9784;BME280;4931;44.874;-1.092;2022-10-16T20:08:02;100988.94;;;21.39;100.00
9784;BME280;4931;44.874;-1.092;2022-10-16T20:12:50;100997.88;;;21.45;100.00
9784;BME280;4931;44.874;-1.092;2022-10-16T20:17:35;100999.38;;;21.43;100.00
9784;BME280;4931;44.874;-1.092;2022-10-16T20:22:21;101002.41;;;21.37;100.00
9784;BME280;4931;44.874;-1.092;2022-10-16T20:27:06;101007.19;;;21.37;100.00
9784;BME280;4931;44.874;-1.092;2022-10-16T20:31:54;101011.47;;;21.34;100.00
9784;BME280;4931;44.874;-1.092;2022-10-16T20:36:40;100999.84;;;21.32;100.00
9784;BME280;4931;44.874;-1.092;2022-10-16T20:41:26;100995.09;;;21.33;100.00
9784;BME280;4931;44.874;-1.092;2022-10-16T20:46:13;101008.22;;;21.32;100.00
9784;BME280;4931;44.874;-1.092;2022-10-16T20:51:09;100988.00;;;21.35;100.00
9784;BME280;4931;44.874;-1.092;2022-10-16T20:55:54;101000.91;;;21.28;100.00
9784;BME280;4931;44.874;-1.092;2022-10-16T21:00:40;101000.78;;;21.24;100.00
9784;BME280;4931;44.874;-1.092;2022-10-16T21:05:25;101001.69;;;21.16;100.00
9784;BME280;4931;44.874;-1.092;2022-10-16T21:10:15;101007.28;;;21.16;100.00
9784;BME280;4931;44.874;-1.092;2022-10-16T21:15:01;101005.84;;;21.10;100.00
9784;BME280;4931;44.874;-1.092;2022-10-16T21:20:01;101002.13;;;21.05;100.00
9784;BME280;4931;44.874;-1.092;2022-10-16T21:24:46;101007.72;;;21.05;100.00
9784;BME280;4931;44.874;-1.092;2022-10-16T21:29:34;100999.56;;;21.00;100.00
9784;BME280;4931;44.874;-1.092;2022-10-16T21:34:19;101008.38;;;21.02;100.00
9784;BME280;4931;44.874;-1.092;2022-10-16T21:39:06;101021.19;;;21.03;100.00
9784;BME280;4931;44.874;-1.092;2022-10-16T21:43:52;101043.25;;;20.96;100.00
9784;BME280;4931;44.874;-1.092;2022-10-16T21:48:40;101048.34;;;20.94;100.00
9784;BME280;4931;44.874;-1.092;2022-10-16T21:53:26;101055.63;;;20.86;100.00
9784;BME280;4931;44.874;-1.092;2022-10-16T21:58:11;101062.97;;;20.91;100.00
9784;BME280;4931;44.874;-1.092;2022-10-16T22:02:56;101044.59;;;20.78;100.00
9784;BME280;4931;44.874;-1.092;2022-10-16T22:07:44;101057.09;;;20.71;100.00
9784;BME280;4931;44.874;-1.092;2022-10-16T22:12:29;101073.34;;;20.69;100.00
9784;BME280;4931;44.874;-1.092;2022-10-16T22:17:15;101084.38;;;20.99;100.00
9784;BME280;4931;44.874;-1.092;2022-10-16T22:22:00;101088.00;;;20.79;100.00
9784;BME280;4931;44.874;-1.092;2022-10-16T22:26:48;101099.84;;;20.76;100.00
9784;BME280;4931;44.874;-1.092;2022-10-16T22:31:33;101105.41;;;20.76;100.00
9784;BME280;4931;44.874;-1.092;2022-10-16T22:36:19;101111.94;;;20.80;100.00
9784;BME280;4931;44.874;-1.092;2022-10-16T22:41:05;101128.25;;;20.69;100.00
9784;BME280;4931;44.874;-1.092;2022-10-16T22:45:53;101124.97;;;20.67;100.00
9784;BME280;4931;44.874;-1.092;2022-10-16T22:50:38;101126.06;;;20.53;100.00
9784;BME280;4931;44.874;-1.092;2022-10-16T22:55:24;101137.38;;;20.78;100.00
9784;BME280;4931;44.874;-1.092;2022-10-16T23:00:12;101122.13;;;20.54;100.00
9784;BME280;4931;44.874;-1.092;2022-10-16T23:05:00;101132.78;;;20.52;100.00
9784;BME280;4931;44.874;-1.092;2022-10-16T23:09:47;101137.06;;;20.50;100.00
9784;BME280;4931;44.874;-1.092;2022-10-16T23:14:32;101147.16;;;20.63;100.00
9784;BME280;4931;44.874;-1.092;2022-10-16T23:19:17;101141.56;;;20.42;100.00
9784;BME280;4931;44.874;-1.092;2022-10-16T23:24:05;101162.81;;;20.47;100.00
9784;BME280;4931;44.874;-1.092;2022-10-16T23:28:51;101170.22;;;20.43;100.00
9784;BME280;4931;44.874;-1.092;2022-10-16T23:33:37;101188.28;;;20.36;100.00
9784;BME280;4931;44.874;-1.092;2022-10-16T23:38:23;101200.00;;;20.51;100.00
9784;BME280;4931;44.874;-1.092;2022-10-16T23:43:11;101201.34;;;20.45;100.00
9784;BME280;4931;44.874;-1.092;2022-10-16T23:47:56;101225.94;;;20.43;100.00
9784;BME280;4931;44.874;-1.092;2022-10-16T23:52:41;101256.03;;;20.58;100.00
9784;BME280;4931;44.874;-1.092;2022-10-16T23:57:26;101268.28;;;20.27;100.00
